createdAt,value
2023-01-21T00:00:08.661Z,101134.31
2023-01-21T00:02:36.353Z,101135.34
2023-01-21T00:05:04.105Z,101133.81
2023-01-21T00:07:31.835Z,101140.44
2023-01-21T00:09:59.562Z,101138.75
2023-01-21T00:12:27.284Z,101138.91
2023-01-21T00:14:55.649Z,101135.00
2023-01-21T00:17:23.415Z,101137.03
2023-01-21T00:19:51.336Z,101140.94
2023-01-21T00:22:19.094Z,101140.44
2023-01-21T00:24:46.793Z,101154.06
2023-01-21T00:27:14.518Z,101141.97
2023-01-21T00:29:42.264Z,101150.31
2023-01-21T00:32:10.008Z,101157.97
2023-01-21T00:34:37.707Z,101158.81
2023-01-21T00:37:05.373Z,101156.09
2023-01-21T00:39:33.048Z,101162.41
2023-01-21T00:42:00.790Z,101165.31
2023-01-21T00:44:28.587Z,101160.16
2023-01-21T00:46:56.314Z,101164.75
2023-01-21T00:49:24.041Z,101165.63
2023-01-21T00:51:51.748Z,101169.34
2023-01-21T00:54:19.496Z,101165.91
2023-01-21T00:56:47.227Z,101173.09
2023-01-21T00:59:15.084Z,101183.31
2023-01-21T01:01:42.893Z,101183.31
2023-01-21T01:04:12.190Z,101183.47
2023-01-21T01:06:39.885Z,101182.59
2023-01-21T01:09:07.940Z,101180.91
2023-01-21T01:11:35.690Z,101182.78
2023-01-21T01:14:03.462Z,101186.69
2023-01-21T01:16:31.157Z,101187.53
2023-01-21T01:18:58.875Z,101186.84
2023-01-21T01:21:26.574Z,101189.56
2023-01-21T01:23:54.810Z,101187.03
2023-01-21T01:26:22.548Z,101182.78
2023-01-21T01:28:50.330Z,101198.25
2023-01-21T01:31:18.247Z,101198.44
2023-01-21T01:33:46.180Z,101203.88
2023-01-21T01:36:13.973Z,101197.88
2023-01-21T01:38:41.697Z,101202.47
2023-01-21T01:41:09.617Z,101205.22
2023-01-21T01:43:37.310Z,101201.63
2023-01-21T01:46:05.168Z,101203.66
2023-01-21T01:48:32.923Z,101209.28
2023-01-21T01:51:00.680Z,101210.13
2023-01-21T01:53:28.436Z,101208.41
2023-01-21T01:55:56.164Z,101202.97
2023-01-21T01:58:23.876Z,101210.13
2023-01-21T02:00:51.563Z,101205.88
2023-01-21T02:03:37.105Z,101210.47
2023-01-21T02:06:04.889Z,101207.06
2023-01-21T02:08:33.314Z,101210.78
2023-01-21T02:11:03.809Z,101208.94
2023-01-21T02:13:31.652Z,101215.56
2023-01-21T02:15:59.480Z,101213.50
2023-01-21T02:18:27.257Z,101218.09
2023-01-21T02:20:54.960Z,101221.00
2023-01-21T02:23:25.878Z,101217.41
2023-01-21T02:25:53.860Z,101214.84
2023-01-21T02:28:21.605Z,101217.41
2023-01-21T02:30:49.365Z,101218.56
2023-01-21T02:33:17.117Z,101218.56
2023-01-21T02:35:44.905Z,101212.28
2023-01-21T02:38:12.612Z,101215.19
2023-01-21T02:40:40.355Z,101224.34
2023-01-21T02:43:08.207Z,101222.66
2023-01-21T02:45:36.282Z,101220.97
2023-01-21T02:48:06.108Z,101226.41
2023-01-21T02:50:34.342Z,101234.72
2023-01-21T02:53:02.051Z,101230.13
2023-01-21T02:55:29.779Z,101232.00
2023-01-21T02:57:57.575Z,101239.31
2023-01-21T03:00:25.390Z,101244.91
2023-01-21T03:02:53.165Z,101248.81
2023-01-21T03:05:20.904Z,101241.50
2023-01-21T03:07:48.642Z,101250.56
2023-01-21T03:10:16.560Z,101249.53
2023-01-21T03:12:44.450Z,101256.66
2023-01-21T03:15:29.971Z,101256.00
2023-01-21T03:17:57.681Z,101257.31
2023-01-21T03:20:25.396Z,101261.75
2023-01-21T03:22:53.255Z,101263.28
2023-01-21T03:25:21.029Z,101268.06
2023-01-21T03:27:48.720Z,101262.63
2023-01-21T03:30:16.807Z,101265.34
2023-01-21T03:32:44.919Z,101264.63
2023-01-21T03:35:12.709Z,101259.53
2023-01-21T03:37:40.466Z,101265.81
2023-01-21T03:40:08.188Z,101264.97
2023-01-21T03:42:35.931Z,101268.69
2023-01-21T03:45:03.781Z,101267.84
2023-01-21T03:47:31.863Z,101273.13
2023-01-21T03:49:59.576Z,101273.28
2023-01-21T03:52:27.304Z,101273.28
2023-01-21T03:54:55.064Z,101271.41
2023-01-21T03:57:22.727Z,101273.28
2023-01-21T03:59:50.502Z,101268.88
2023-01-21T04:02:20.315Z,101274.31
2023-01-21T04:04:48.287Z,101274.97
2023-01-21T04:07:16.058Z,101274.31
2023-01-21T04:09:43.769Z,101270.56
2023-01-21T04:12:11.900Z,101273.97
2023-01-21T04:14:39.662Z,101267.84
2023-01-21T04:17:07.474Z,101272.56
2023-01-21T04:19:35.215Z,101280.75
2023-01-21T04:22:02.967Z,101281.44
2023-01-21T04:24:31.400Z,101279.75
2023-01-21T04:27:00.352Z,101281.06
2023-01-21T04:29:28.147Z,101286.50
2023-01-21T04:31:55.997Z,101290.25
2023-01-21T04:34:23.806Z,101283.66
2023-01-21T04:36:51.625Z,101283.09
2023-01-21T04:39:19.446Z,101283.28
2023-01-21T04:41:47.307Z,101280.22
2023-01-21T04:44:15.049Z,101293.84
2023-01-21T04:46:42.865Z,101300.28
2023-01-21T04:49:10.713Z,101299.44
2023-01-21T04:51:38.548Z,101307.44
2023-01-21T04:54:06.453Z,101312.03
2023-01-21T04:56:34.185Z,101314.06
2023-01-21T04:59:01.933Z,101313.22
2023-01-21T05:01:29.753Z,101314.38
2023-01-21T05:03:57.482Z,101322.88
2023-01-21T05:06:25.263Z,101323.88
2023-01-21T05:08:52.997Z,101332.22
2023-01-21T05:11:20.854Z,101335.22
2023-01-21T05:13:48.608Z,101337.66
2023-01-21T05:16:16.463Z,101345.13
2023-01-21T05:18:46.733Z,101346.81
2023-01-21T05:21:14.662Z,101342.00
2023-01-21T05:23:42.406Z,101343.47
2023-01-21T05:26:10.129Z,101351.47
2023-01-21T05:28:37.926Z,101356.94
2023-01-21T05:31:05.760Z,101356.38
2023-01-21T05:33:34.011Z,101351.63
2023-01-21T05:36:01.745Z,101358.06
2023-01-21T05:38:29.503Z,101358.38
2023-01-21T05:40:57.329Z,101355.34
2023-01-21T05:43:25.038Z,101360.66
2023-01-21T05:45:52.885Z,101356.16
2023-01-21T05:48:20.636Z,101354.72
2023-01-21T05:50:48.490Z,101355.94
2023-01-21T05:53:16.223Z,101359.75
2023-01-21T05:55:43.992Z,101348.22
2023-01-21T05:58:11.722Z,101352.56
2023-01-21T06:00:41.932Z,101370.78
2023-01-21T06:03:09.726Z,101371.97
2023-01-21T06:05:37.460Z,101358.94
2023-01-21T06:08:05.467Z,101367.56
2023-01-21T06:10:33.212Z,101369.53
2023-01-21T06:13:00.976Z,101379.94
2023-01-21T06:15:28.726Z,101377.00
2023-01-21T06:17:56.481Z,101378.66
2023-01-21T06:20:24.198Z,101383.16
2023-01-21T06:22:51.948Z,101387.97
2023-01-21T06:25:19.714Z,101382.56
2023-01-21T06:27:47.495Z,101379.53
2023-01-21T06:30:15.443Z,101378.25
2023-01-21T06:32:43.371Z,101386.38
2023-01-21T06:35:11.096Z,101378.84
2023-01-21T06:37:38.865Z,101374.94
2023-01-21T06:40:07.581Z,101381.91
2023-01-21T06:42:35.370Z,101385.72
2023-01-21T06:45:03.116Z,101384.88
2023-01-21T06:47:30.852Z,101377.50
2023-01-21T06:49:58.580Z,101377.84
2023-01-21T06:52:26.297Z,101376.50
2023-01-21T06:54:54.205Z,101389.50
2023-01-21T06:57:22.030Z,101370.91
2023-01-21T06:59:49.795Z,101372.91
2023-01-21T07:02:17.587Z,101369.50
2023-01-21T07:04:45.628Z,101360.06
2023-01-21T07:07:13.403Z,101367.66
2023-01-21T07:09:41.807Z,101377.13
2023-01-21T07:12:09.559Z,101385.28
2023-01-21T07:14:37.648Z,101370.50
2023-01-21T07:17:05.399Z,101383.81
2023-01-21T07:19:33.211Z,101382.84
2023-01-21T07:22:00.978Z,101388.84
2023-01-21T07:24:28.754Z,101390.66
2023-01-21T07:26:57.201Z,101386.56
2023-01-21T07:29:24.945Z,101386.00
2023-01-21T07:31:53.021Z,101388.84
2023-01-21T07:34:20.850Z,101388.75
2023-01-21T07:36:48.613Z,101386.22
2023-01-21T07:39:16.612Z,101380.88
2023-01-21T07:41:44.378Z,101402.16
2023-01-21T07:44:12.160Z,101388.16
2023-01-21T07:46:39.975Z,101390.56
2023-01-21T07:49:07.723Z,101390.06
2023-01-21T07:51:35.484Z,101386.94
2023-01-21T07:54:03.316Z,101387.41
2023-01-21T07:56:31.144Z,101388.09
2023-01-21T07:58:58.942Z,101391.25
2023-01-21T08:01:31.142Z,101384.91
2023-01-21T08:03:58.977Z,101393.28
2023-01-21T08:06:26.744Z,101389.50
2023-01-21T08:08:54.546Z,101391.63
2023-01-21T08:11:22.379Z,101397.69
2023-01-21T08:13:50.137Z,101393.31
2023-01-21T08:16:18.009Z,101401.38
2023-01-21T08:18:45.821Z,101395.31
2023-01-21T08:21:13.561Z,101401.88
2023-01-21T08:23:41.287Z,101411.03
2023-01-21T08:26:09.066Z,101399.94
2023-01-21T08:28:36.833Z,101391.25
2023-01-21T08:31:04.635Z,101403.91
2023-01-21T08:33:33.129Z,101406.16
2023-01-21T08:36:00.909Z,101407.22
2023-01-21T08:38:28.768Z,101406.44
2023-01-21T08:40:56.496Z,101402.31
2023-01-21T08:43:24.262Z,101407.84
2023-01-21T08:45:52.044Z,101394.94
2023-01-21T08:48:20.165Z,101406.47
2023-01-21T08:50:47.936Z,101403.34
2023-01-21T08:53:15.669Z,101409.41
2023-01-21T08:55:43.392Z,101400.19
2023-01-21T08:58:11.137Z,101400.59
2023-01-21T09:00:38.971Z,101397.19
2023-01-21T09:03:06.779Z,101397.41
2023-01-21T09:05:34.564Z,101400.00
2023-01-21T09:08:02.384Z,101406.13
2023-01-21T09:10:47.735Z,101403.84
2023-01-21T09:13:16.434Z,101411.88
2023-01-21T09:15:44.391Z,101414.56
2023-01-21T09:18:12.251Z,101418.28
2023-01-21T09:20:40.043Z,101413.09
2023-01-21T09:23:24.288Z,101411.81
2023-01-21T09:25:52.334Z,101414.09
2023-01-21T09:28:23.371Z,101412.81
2023-01-21T09:30:51.211Z,101409.53
2023-01-21T09:33:19.142Z,101416.03
2023-01-21T09:35:46.996Z,101408.28
2023-01-21T09:38:15.057Z,101409.28
2023-01-21T09:40:44.041Z,101419.00
2023-01-21T09:43:11.845Z,101416.97
2023-01-21T09:45:39.677Z,101423.47
2023-01-21T09:48:11.825Z,101419.34
2023-01-21T09:50:39.810Z,101431.31
2023-01-21T09:53:10.451Z,101422.63
2023-01-21T09:55:38.328Z,101418.78
2023-01-21T09:58:10.548Z,101416.16
2023-01-21T10:00:39.582Z,101432.78
2023-01-21T10:03:07.452Z,101427.53
2023-01-21T10:05:35.306Z,101424.41
2023-01-21T10:08:03.184Z,101435.06
2023-01-21T10:10:31.170Z,101439.31
2023-01-21T10:12:59.017Z,101438.84
2023-01-21T10:15:26.961Z,101436.50
2023-01-21T10:17:57.786Z,101437.69
2023-01-21T10:20:25.721Z,101446.09
2023-01-21T10:22:55.918Z,101437.03
2023-01-21T10:25:25.837Z,101440.63
2023-01-21T10:27:53.711Z,101434.28
2023-01-21T10:30:21.512Z,101436.50
2023-01-21T10:32:49.361Z,101440.09
2023-01-21T10:35:17.336Z,101435.97
2023-01-21T10:37:45.477Z,101440.25
2023-01-21T10:40:14.104Z,101436.13
2023-01-21T10:42:42.133Z,101431.84
2023-01-21T10:45:10.054Z,101438.69
2023-01-21T10:47:37.842Z,101436.31
2023-01-21T10:50:05.711Z,101432.19
2023-01-21T10:52:33.609Z,101438.50
2023-01-21T10:55:02.385Z,101421.97
2023-01-21T10:57:31.049Z,101429.78
2023-01-21T10:59:58.913Z,101424.34
2023-01-21T11:02:26.862Z,101421.59
2023-01-21T11:04:54.805Z,101417.50
2023-01-21T11:07:22.650Z,101421.91
2023-01-21T11:09:50.828Z,101422.94
2023-01-21T11:12:18.847Z,101423.97
2023-01-21T11:14:49.283Z,101420.53
2023-01-21T11:17:17.271Z,101419.16
2023-01-21T11:19:45.333Z,101415.75
2023-01-21T11:22:13.250Z,101411.31
2023-01-21T11:24:41.176Z,101415.06
2023-01-21T11:27:09.032Z,101411.66
2023-01-21T11:29:37.034Z,101412.50
2023-01-21T11:32:04.886Z,101402.91
2023-01-21T11:34:32.780Z,101410.56
2023-01-21T11:37:00.716Z,101399.84
2023-01-21T11:39:28.610Z,101392.13
2023-01-21T11:41:58.752Z,101399.63
2023-01-21T11:44:27.725Z,101385.28
2023-01-21T11:47:00.643Z,101387.50
2023-01-21T11:49:28.448Z,101383.41
2023-01-21T11:51:58.556Z,101389.03
2023-01-21T11:54:26.327Z,101384.06
2023-01-21T11:56:54.182Z,101378.94
2023-01-21T11:59:21.969Z,101375.53
2023-01-21T12:01:49.853Z,101377.56
2023-01-21T12:04:17.792Z,101373.63
2023-01-21T12:06:47.966Z,101373.09
2023-01-21T12:09:15.727Z,101375.28
2023-01-21T12:11:43.502Z,101368.28
2023-01-21T12:14:11.432Z,101364.34
2023-01-21T12:16:39.278Z,101361.81
2023-01-21T12:19:07.682Z,101365.38
2023-01-21T12:21:35.595Z,101352.09
2023-01-21T12:24:03.339Z,101356.84
2023-01-21T12:26:31.215Z,101357.53
2023-01-21T12:28:58.912Z,101350.34
2023-01-21T12:31:26.635Z,101344.06
2023-01-21T12:33:54.462Z,101347.63
2023-01-21T12:36:22.189Z,101335.03
2023-01-21T12:38:49.964Z,101340.81
2023-01-21T12:41:17.680Z,101340.97
2023-01-21T12:43:46.670Z,101344.38
2023-01-21T12:46:14.989Z,101336.22
2023-01-21T12:48:42.803Z,101336.53
2023-01-21T12:51:10.605Z,101342.09
2023-01-21T12:53:38.433Z,101333.47
2023-01-21T12:56:08.082Z,101336.34
2023-01-21T12:58:37.134Z,101340.03
2023-01-21T13:01:14.015Z,101351.72
2023-01-21T13:03:41.835Z,101348.47
2023-01-21T13:06:09.546Z,101345.16
2023-01-21T13:08:37.281Z,101343.28
2023-01-21T13:11:05.069Z,101338.19
2023-01-21T13:13:32.800Z,101348.06
2023-01-21T13:16:00.773Z,101347.28
2023-01-21T13:18:28.492Z,101342.91
2023-01-21T13:20:56.255Z,101335.63
2023-01-21T13:23:23.975Z,101330.09
2023-01-21T13:25:53.303Z,101321.53
2023-01-21T13:28:21.025Z,101307.69
2023-01-21T13:30:48.914Z,101308.78
2023-01-21T13:33:16.820Z,101308.25
2023-01-21T13:35:44.547Z,101313.91
2023-01-21T13:38:12.377Z,101305.47
2023-01-21T13:40:40.133Z,101311.31
2023-01-21T13:43:08.007Z,101306.94
2023-01-21T13:45:35.781Z,101314.56
2023-01-21T13:48:03.543Z,101310.31
2023-01-21T13:50:31.320Z,101326.47
2023-01-21T13:52:59.053Z,101310.63
2023-01-21T13:55:26.834Z,101281.50
2023-01-21T13:57:54.650Z,101305.25
2023-01-21T14:00:22.371Z,101306.63
2023-01-21T14:02:50.256Z,101295.66
2023-01-21T14:05:18.024Z,101294.59
2023-01-21T14:07:45.736Z,101295.78
2023-01-21T14:10:13.779Z,101297.13
2023-01-21T14:12:41.481Z,101288.00
2023-01-21T14:15:09.151Z,101282.66
2023-01-21T14:17:37.024Z,101281.69
2023-01-21T14:20:04.764Z,101278.81
2023-01-21T14:22:32.663Z,101284.53
2023-01-21T14:25:01.068Z,101279.88
2023-01-21T14:27:28.807Z,101274.88
2023-01-21T14:29:56.556Z,101277.72
2023-01-21T14:32:24.324Z,101266.78
2023-01-21T14:34:52.134Z,101258.97
2023-01-21T14:37:19.978Z,101260.91
2023-01-21T14:39:47.668Z,101255.03
2023-01-21T14:42:17.425Z,101256.09
2023-01-21T14:44:45.263Z,101248.22
2023-01-21T14:47:13.031Z,101250.72
2023-01-21T14:49:40.781Z,101255.59
2023-01-21T14:52:08.537Z,101257.41
2023-01-21T14:54:36.228Z,101257.78
2023-01-21T14:57:18.119Z,101259.84
2023-01-21T14:59:46.717Z,101254.59
2023-01-21T15:02:14.551Z,101250.84
2023-01-21T15:04:42.409Z,101258.06
2023-01-21T15:07:10.169Z,101260.41
2023-01-21T15:09:37.914Z,101256.53
2023-01-21T15:12:05.666Z,101256.00
2023-01-21T15:14:33.387Z,101253.13
2023-01-21T15:17:01.632Z,101247.00
2023-01-21T15:19:29.538Z,101235.38
2023-01-21T15:21:57.837Z,101234.16
2023-01-21T15:24:26.094Z,101221.28
2023-01-21T15:26:54.110Z,101207.75
2023-01-21T15:29:21.905Z,101204.78
2023-01-21T15:31:49.796Z,101205.00
2023-01-21T15:34:17.743Z,101186.44
2023-01-21T15:36:47.137Z,101190.16
2023-01-21T15:39:15.280Z,101189.94
2023-01-21T15:41:45.088Z,101182.28
2023-01-21T15:44:14.474Z,101183.38
2023-01-21T15:46:45.419Z,101180.59
2023-01-21T15:49:15.202Z,101176.16
2023-01-21T15:51:44.354Z,101176.59
2023-01-21T15:54:14.714Z,101171.81
2023-01-21T15:56:45.638Z,101166.91
2023-01-21T15:59:13.534Z,101161.69
2023-01-21T16:01:44.145Z,101161.00
2023-01-21T16:04:13.341Z,101167.72
2023-01-21T16:06:41.363Z,101168.81
2023-01-21T16:09:11.824Z,101166.78
2023-01-21T16:11:42.837Z,101166.84
2023-01-21T16:14:14.483Z,101159.16
2023-01-21T16:16:43.095Z,101158.66
2023-01-21T16:19:11.033Z,101162.13
2023-01-21T16:21:40.301Z,101155.41
2023-01-21T16:24:08.079Z,101155.03
2023-01-21T16:26:40.100Z,101156.69
2023-01-21T16:29:11.101Z,101147.63
2023-01-21T16:31:44.386Z,101152.50
2023-01-21T16:34:12.345Z,101147.72
2023-01-21T16:36:40.402Z,101150.53
2023-01-21T16:39:08.354Z,101151.22
2023-01-21T16:41:36.428Z,101143.47
2023-01-21T16:44:06.201Z,101143.97
2023-01-21T16:46:34.734Z,101141.50
2023-01-21T16:49:05.001Z,101158.66
2023-01-21T16:51:33.443Z,101146.25
2023-01-21T16:54:03.779Z,101148.44
2023-01-21T16:56:31.911Z,101151.19
2023-01-21T16:59:00.235Z,101150.84
2023-01-21T17:01:30.685Z,101161.53
2023-01-21T17:04:01.299Z,101167.06
2023-01-21T17:06:29.066Z,101165.72
2023-01-21T17:08:56.836Z,101166.19
2023-01-21T17:11:26.637Z,101167.00
2023-01-21T17:13:54.428Z,101172.22
2023-01-21T17:16:24.416Z,101167.72
2023-01-21T17:18:52.434Z,101167.06
2023-01-21T17:21:20.205Z,101158.69
2023-01-21T17:23:48.070Z,101168.59
2023-01-21T17:26:15.936Z,101167.88
2023-01-21T17:28:43.726Z,101170.78
2023-01-21T17:31:11.639Z,101163.94
2023-01-21T17:33:41.213Z,101161.94
2023-01-21T17:36:08.975Z,101163.53
2023-01-21T17:38:36.820Z,101163.53
2023-01-21T17:41:06.304Z,101155.50
2023-01-21T17:43:36.163Z,101156.97
2023-01-21T17:46:04.037Z,101152.47
2023-01-21T17:48:32.251Z,101160.50
2023-01-21T17:51:00.151Z,101157.63
2023-01-21T17:53:28.012Z,101160.19
2023-01-21T17:55:55.837Z,101153.56
2023-01-21T17:58:23.640Z,101160.53
2023-01-21T18:00:51.594Z,101157.78
2023-01-21T18:03:19.446Z,101160.53
2023-01-21T18:05:47.230Z,101150.94
2023-01-21T18:08:15.122Z,101151.88
2023-01-21T18:10:42.895Z,101155.63
2023-01-21T18:13:10.675Z,101154.97
2023-01-21T18:15:38.482Z,101162.66
2023-01-21T18:18:06.241Z,101159.50
2023-01-21T18:20:34.076Z,101165.91
2023-01-21T18:23:02.106Z,101160.16
2023-01-21T18:25:29.925Z,101153.97
2023-01-21T18:27:57.639Z,101163.88
2023-01-21T18:30:25.971Z,101159.97
2023-01-21T18:32:53.843Z,101155.19
2023-01-21T18:35:21.642Z,101167.56
2023-01-21T18:37:49.617Z,101166.28
2023-01-21T18:40:18.333Z,101156.47
2023-01-21T18:42:46.425Z,101162.66
2023-01-21T18:45:14.271Z,101156.56
2023-01-21T18:47:42.202Z,101158.78
2023-01-21T18:50:09.983Z,101155.88
2023-01-21T18:52:37.896Z,101157.16
2023-01-21T18:55:07.213Z,101154.31
2023-01-21T18:57:36.013Z,101144.88
2023-01-21T19:00:04.437Z,101149.81
2023-01-21T19:02:32.202Z,101147.81
2023-01-21T19:04:59.953Z,101147.41
2023-01-21T19:07:27.860Z,101142.75
2023-01-21T19:09:55.624Z,101152.72
2023-01-21T19:12:24.381Z,101160.31
2023-01-21T19:14:52.199Z,101158.22
2023-01-21T19:17:20.121Z,101163.72
2023-01-21T19:19:47.863Z,101167.38
2023-01-21T19:22:15.649Z,101162.34
2023-01-21T19:24:43.424Z,101168.09
2023-01-21T19:27:11.246Z,101169.13
2023-01-21T19:29:40.944Z,101162.25
2023-01-21T19:32:08.758Z,101168.72
2023-01-21T19:34:36.554Z,101158.69
2023-01-21T19:37:04.368Z,101163.81
2023-01-21T19:39:35.208Z,101164.59
2023-01-21T19:42:08.271Z,101156.25
2023-01-21T19:44:36.654Z,101148.47
2023-01-21T19:47:04.898Z,101155.69
2023-01-21T19:49:32.666Z,101155.78
2023-01-21T19:52:00.511Z,101150.16
2023-01-21T19:54:28.276Z,101146.84
2023-01-21T19:56:56.047Z,101155.53
2023-01-21T19:59:23.830Z,101153.63
2023-01-21T20:01:52.009Z,101162.31
2023-01-21T20:04:19.812Z,101155.03
2023-01-21T20:06:47.594Z,101159.75
2023-01-21T20:09:17.777Z,101165.06
2023-01-21T20:11:45.522Z,101164.00
2023-01-21T20:14:13.246Z,101157.47
2023-01-21T20:16:41.008Z,101159.69
2023-01-21T20:19:08.769Z,101161.78
2023-01-21T20:21:49.923Z,101171.56
2023-01-21T20:24:22.682Z,101164.78
2023-01-21T20:26:50.440Z,101177.72
2023-01-21T20:29:20.094Z,101182.63
2023-01-21T20:31:47.981Z,101183.03
2023-01-21T20:34:15.774Z,101186.81
2023-01-21T20:36:45.457Z,101192.25
2023-01-21T20:39:13.288Z,101188.94
2023-01-21T20:41:41.123Z,101197.91
2023-01-21T20:44:08.903Z,101191.59
2023-01-21T20:46:36.633Z,101202.84
2023-01-21T20:49:04.406Z,101202.72
2023-01-21T20:51:32.161Z,101203.38
2023-01-21T20:53:59.924Z,101205.69
2023-01-21T20:56:27.628Z,101200.47
2023-01-21T20:58:55.389Z,101196.66
2023-01-21T21:01:23.146Z,101206.63
2023-01-21T21:03:50.979Z,101203.69
2023-01-21T21:06:18.744Z,101205.59
2023-01-21T21:08:46.521Z,101201.16
2023-01-21T21:11:14.809Z,101204.06
2023-01-21T21:13:42.657Z,101204.78
2023-01-21T21:16:10.436Z,101203.56
2023-01-21T21:18:38.195Z,101209.00
2023-01-21T21:21:05.986Z,101216.59
2023-01-21T21:23:33.790Z,101215.53
2023-01-21T21:26:01.562Z,101217.34
2023-01-21T21:28:29.292Z,101210.72
2023-01-21T21:30:57.058Z,101224.25
2023-01-21T21:33:24.865Z,101228.91
2023-01-21T21:35:52.686Z,101226.41
2023-01-21T21:38:22.091Z,101228.34
2023-01-21T21:40:52.898Z,101223.25
2023-01-21T21:43:38.918Z,101226.88
2023-01-21T21:46:24.325Z,101226.22
2023-01-21T21:48:52.203Z,101235.13
2023-01-21T21:51:20.073Z,101233.09
2023-01-21T21:53:47.901Z,101239.94
2023-01-21T21:56:26.520Z,101237.56
2023-01-21T21:58:54.406Z,101241.69
2023-01-21T22:01:22.302Z,101238.75
2023-01-21T22:03:50.054Z,101243.75
2023-01-21T22:06:17.760Z,101236.91
2023-01-21T22:08:45.507Z,101249.22
2023-01-21T22:11:13.200Z,101242.25
2023-01-21T22:13:41.946Z,101248.91
2023-01-21T22:16:09.703Z,101247.53
2023-01-21T22:18:37.386Z,101250.28
2023-01-21T22:21:05.113Z,101255.06
2023-01-21T22:23:32.876Z,101261.03
2023-01-21T22:26:00.631Z,101259.69
2023-01-21T22:28:28.353Z,101259.69
2023-01-21T22:30:56.169Z,101258.66
2023-01-21T22:33:23.973Z,101267.00
2023-01-21T22:35:51.747Z,101267.34
2023-01-21T22:38:19.514Z,101276.06
2023-01-21T22:40:47.231Z,101274.50
2023-01-21T22:43:15.558Z,101273.16
2023-01-21T22:45:43.284Z,101275.56
2023-01-21T22:48:11.088Z,101272.97
2023-01-21T22:50:38.876Z,101277.78
2023-01-21T22:53:06.605Z,101273.63
2023-01-21T22:55:36.386Z,101271.94
2023-01-21T22:58:04.186Z,101274.16
2023-01-21T23:00:37.968Z,101282.50
2023-01-21T23:03:05.745Z,101270.38
2023-01-21T23:05:33.559Z,101274.81
2023-01-21T23:08:02.468Z,101276.03
2023-01-21T23:10:30.302Z,101273.63
2023-01-21T23:12:58.038Z,101269.72
2023-01-21T23:15:25.737Z,101274.81
2023-01-21T23:17:53.795Z,101274.63
2023-01-21T23:20:23.260Z,101280.91
2023-01-21T23:22:51.178Z,101279.56
2023-01-21T23:25:18.866Z,101277.66
2023-01-21T23:27:46.705Z,101274.41
2023-01-21T23:30:14.402Z,101265.72
2023-01-21T23:32:42.143Z,101276.97
2023-01-21T23:35:12.697Z,101270.81
2023-01-21T23:37:40.456Z,101270.31
2023-01-21T23:40:08.158Z,101267.72
2023-01-21T23:42:35.927Z,101270.59
2023-01-21T23:45:03.664Z,101267.88
2023-01-21T23:47:31.529Z,101267.03
2023-01-21T23:49:59.415Z,101268.91
2023-01-21T23:52:27.175Z,101267.22
2023-01-21T23:54:55.059Z,101269.25
2023-01-21T23:57:22.813Z,101268.22
2023-01-21T23:59:51.135Z,101264.66
